createdAt,value
2022-12-31T00:01:33.079Z,96025.22
2022-12-31T00:03:59.821Z,96038.41
2022-12-31T00:06:32.394Z,96042.19
2022-12-31T00:09:00.843Z,96055.25
2022-12-31T00:11:29.599Z,96052.59
2022-12-31T00:13:56.546Z,96038.53
2022-12-31T00:16:27.259Z,96034.09
2022-12-31T00:18:56.572Z,96031.75
2022-12-31T00:21:23.012Z,96041.03
2022-12-31T00:23:49.462Z,96037.06
2022-12-31T00:26:20.285Z,96036.88
2022-12-31T00:28:48.268Z,96028.97
2022-12-31T00:31:21.434Z,96053.59
2022-12-31T00:33:48.834Z,96031.47
2022-12-31T00:36:18.686Z,96025.84
2022-12-31T00:38:47.632Z,96013.63
2022-12-31T00:41:15.802Z,96018.28
2022-12-31T00:43:42.880Z,96021.59
2022-12-31T00:46:11.014Z,96021.81
2022-12-31T00:48:38.896Z,96023.97
2022-12-31T00:51:08.213Z,96017.69
2022-12-31T00:53:34.777Z,96026.28
2022-12-31T00:56:07.856Z,96025.66
2022-12-31T00:58:35.308Z,96020.38
2022-12-31T01:01:17.931Z,96012.03
2022-12-31T01:03:45.798Z,96010.19
2022-12-31T01:06:12.299Z,96030.38
2022-12-31T01:08:38.948Z,96039.56
2022-12-31T01:11:06.518Z,96045.91
2022-12-31T01:13:33.292Z,96033.63
2022-12-31T01:16:07.010Z,96018.75
2022-12-31T01:18:33.569Z,96020.03
2022-12-31T01:21:02.774Z,96018.59
2022-12-31T01:23:29.771Z,96023.44
2022-12-31T01:25:56.520Z,96020.28
2022-12-31T01:28:22.962Z,96028.44
2022-12-31T01:30:49.443Z,96040.00
2022-12-31T01:33:15.932Z,96037.25
2022-12-31T01:35:42.383Z,96026.81
2022-12-31T01:38:08.832Z,96029.06
2022-12-31T01:40:40.717Z,96036.31
2022-12-31T01:43:19.939Z,96038.75
2022-12-31T01:45:50.769Z,96037.00
2022-12-31T01:48:24.133Z,96036.00
2022-12-31T01:50:53.543Z,96030.53
2022-12-31T01:53:21.368Z,96029.44
2022-12-31T01:55:50.394Z,96036.19
2022-12-31T01:58:27.507Z,96039.34
2022-12-31T02:00:55.221Z,96044.56
2022-12-31T02:03:25.882Z,96041.09
2022-12-31T02:06:16.784Z,96044.53
2022-12-31T02:08:43.918Z,96061.41
2022-12-31T02:11:26.774Z,96045.81
2022-12-31T02:13:58.865Z,96052.53
2022-12-31T02:16:40.486Z,96037.34
2022-12-31T02:19:37.203Z,96041.94
2022-12-31T02:22:10.251Z,96044.84
2022-12-31T02:25:23.304Z,96033.56
2022-12-31T02:28:17.231Z,96030.25
2022-12-31T02:30:52.422Z,96038.56
2022-12-31T02:33:50.293Z,96042.94
2022-12-31T02:36:23.889Z,96058.19
2022-12-31T02:38:51.723Z,96060.13
2022-12-31T02:41:20.453Z,96050.34
2022-12-31T02:43:46.955Z,96052.19
2022-12-31T02:46:31.060Z,96040.94
2022-12-31T02:49:30.712Z,96050.13
2022-12-31T02:52:07.636Z,96045.69
2022-12-31T02:55:02.613Z,96029.00
2022-12-31T02:57:51.348Z,96053.44
2022-12-31T03:00:18.252Z,96038.63
2022-12-31T03:02:48.001Z,96039.28
2022-12-31T03:05:19.357Z,96042.88
2022-12-31T03:07:46.304Z,96038.91
2022-12-31T03:10:13.318Z,96035.22
2022-12-31T03:12:43.626Z,96042.47
2022-12-31T03:15:11.760Z,96045.78
2022-12-31T03:17:38.219Z,96045.06
2022-12-31T03:20:05.099Z,96033.56
2022-12-31T03:22:33.167Z,96036.13
2022-12-31T03:25:03.802Z,96041.75
2022-12-31T03:27:30.273Z,96031.69
2022-12-31T03:29:56.712Z,96037.78
2022-12-31T03:32:23.179Z,96029.53
2022-12-31T03:34:49.646Z,96033.84
2022-12-31T03:37:16.091Z,96027.00
2022-12-31T03:39:42.535Z,96038.28
2022-12-31T03:42:08.968Z,96030.72
2022-12-31T03:44:35.563Z,96032.38
2022-12-31T03:47:02.061Z,96025.38
2022-12-31T03:49:28.520Z,96030.66
2022-12-31T03:51:54.992Z,96024.84
2022-12-31T03:54:21.498Z,96025.97
2022-12-31T03:56:49.544Z,96030.94
2022-12-31T03:59:16.134Z,96027.63
2022-12-31T04:01:42.687Z,96030.13
2022-12-31T04:04:09.177Z,96044.78
2022-12-31T04:06:35.659Z,96038.19
2022-12-31T04:09:02.124Z,96045.78
2022-12-31T04:11:28.608Z,96043.13
2022-12-31T04:13:55.074Z,96047.88
2022-12-31T04:16:21.589Z,96035.81
2022-12-31T04:18:48.060Z,96034.81
2022-12-31T04:21:14.536Z,96033.81
2022-12-31T04:23:40.992Z,96029.44
2022-12-31T04:26:07.561Z,96028.63
2022-12-31T04:28:34.098Z,96030.31
2022-12-31T04:31:00.575Z,96037.06
2022-12-31T04:33:27.016Z,96030.91
2022-12-31T04:35:53.514Z,96035.19
2022-12-31T04:38:19.971Z,96032.16
2022-12-31T04:40:46.448Z,96040.06
2022-12-31T04:43:12.898Z,96030.50
2022-12-31T04:45:39.397Z,96034.81
2022-12-31T04:48:06.120Z,96041.50
2022-12-31T04:50:32.576Z,96047.75
2022-12-31T04:52:59.052Z,96046.06
2022-12-31T04:55:25.557Z,96040.22
2022-12-31T04:57:52.039Z,96045.78
2022-12-31T05:00:18.502Z,96027.56
2022-12-31T05:02:46.030Z,96025.91
2022-12-31T05:05:12.627Z,96033.28
2022-12-31T05:07:39.101Z,96036.53
2022-12-31T05:10:06.162Z,96035.41
2022-12-31T05:12:32.659Z,96041.31
2022-12-31T05:14:59.116Z,96043.25
2022-12-31T05:17:25.558Z,96033.28
2022-12-31T05:19:52.029Z,96029.00
2022-12-31T05:22:18.493Z,96033.63
2022-12-31T05:24:44.935Z,96028.28
2022-12-31T05:27:11.383Z,96040.47
2022-12-31T05:29:37.845Z,96044.25
2022-12-31T05:32:04.376Z,96032.31
2022-12-31T05:34:30.894Z,96043.16
2022-12-31T05:36:57.420Z,96041.50
2022-12-31T05:39:23.881Z,96026.63
2022-12-31T05:41:50.351Z,96027.94
2022-12-31T05:44:16.807Z,96035.06
2022-12-31T05:46:43.283Z,96041.09
2022-12-31T05:49:09.751Z,96038.69
2022-12-31T05:51:36.221Z,96033.56
2022-12-31T05:54:02.671Z,96045.19
2022-12-31T05:56:29.155Z,96045.78
2022-12-31T05:58:56.132Z,96044.25
2022-12-31T06:01:22.606Z,96045.38
2022-12-31T06:03:49.186Z,96045.06
2022-12-31T06:06:15.751Z,96050.00
2022-12-31T06:08:42.222Z,96050.34
2022-12-31T06:11:08.714Z,96058.59
2022-12-31T06:13:35.368Z,96055.97
2022-12-31T06:16:07.191Z,96058.78
2022-12-31T06:18:33.670Z,96057.16
2022-12-31T06:21:00.154Z,96052.38
2022-12-31T06:23:27.015Z,96059.34
2022-12-31T06:25:53.524Z,96054.63
2022-12-31T06:28:20.675Z,96049.47
2022-12-31T06:30:48.340Z,96051.13
2022-12-31T06:33:14.834Z,96060.09
2022-12-31T06:35:41.286Z,96052.50
2022-12-31T06:38:07.771Z,96051.19
2022-12-31T06:40:37.393Z,96062.41
2022-12-31T06:43:03.861Z,96064.38
2022-12-31T06:45:30.319Z,96073.00
2022-12-31T06:47:56.786Z,96064.38
2022-12-31T06:50:23.238Z,96074.63
2022-12-31T06:52:49.695Z,96070.75
2022-12-31T06:55:16.488Z,96069.06
2022-12-31T06:57:43.218Z,96083.94
2022-12-31T07:00:10.962Z,96074.72
2022-12-31T07:02:58.746Z,96076.69
2022-12-31T07:05:54.343Z,96071.56
2022-12-31T07:08:52.232Z,96073.38
2022-12-31T07:11:23.435Z,96073.00
2022-12-31T07:14:21.579Z,96083.25
2022-12-31T07:17:00.886Z,96068.22
2022-12-31T07:19:57.316Z,96071.72
2022-12-31T07:22:24.587Z,96080.13
2022-12-31T07:24:51.341Z,96078.34
2022-12-31T07:27:43.654Z,96085.44
2022-12-31T07:30:24.837Z,96074.03
2022-12-31T07:33:25.123Z,96087.38
2022-12-31T07:36:09.176Z,96088.88
2022-12-31T07:38:35.611Z,96086.56
2022-12-31T07:41:35.715Z,96088.56
2022-12-31T07:44:42.445Z,96088.53
2022-12-31T07:47:21.193Z,96103.06
2022-12-31T07:49:48.221Z,96095.50
2022-12-31T07:52:15.004Z,96098.44
2022-12-31T07:54:41.456Z,96098.44
2022-12-31T07:57:10.214Z,96097.09
2022-12-31T07:59:56.177Z,96103.38
2022-12-31T08:02:45.784Z,96099.38
2022-12-31T08:05:22.499Z,96091.16
2022-12-31T08:08:20.285Z,96094.41
2022-12-31T08:11:16.081Z,96086.13
2022-12-31T08:13:42.728Z,96092.69
2022-12-31T08:16:14.160Z,96082.13
2022-12-31T08:18:41.035Z,96092.63
2022-12-31T08:21:19.220Z,96097.22
2022-12-31T08:24:07.477Z,96088.41
2022-12-31T08:27:04.924Z,96083.75
2022-12-31T08:29:45.876Z,96091.56
2022-12-31T08:32:36.301Z,96085.38
2022-12-31T08:35:28.281Z,96092.41
2022-12-31T08:38:12.086Z,96107.34
2022-12-31T08:40:49.209Z,96108.94
2022-12-31T08:43:43.182Z,96105.69
2022-12-31T08:46:33.567Z,96110.28
2022-12-31T08:49:00.282Z,96105.56
2022-12-31T08:51:27.359Z,96107.22
2022-12-31T08:53:54.259Z,96103.94
2022-12-31T08:56:50.738Z,96109.94
2022-12-31T08:59:43.388Z,96106.41
2022-12-31T09:02:23.326Z,96102.31
2022-12-31T09:05:27.243Z,96107.06
2022-12-31T09:08:03.284Z,96114.66
2022-12-31T09:10:32.327Z,96107.53
2022-12-31T09:13:17.281Z,96102.78
2022-12-31T09:16:22.831Z,96108.06
2022-12-31T09:18:49.295Z,96108.66
2022-12-31T09:21:16.253Z,96105.63
2022-12-31T09:23:43.036Z,96105.53
2022-12-31T09:26:34.983Z,96104.78
2022-12-31T09:29:26.358Z,96106.44
2022-12-31T09:32:20.945Z,96117.97
2022-12-31T09:34:56.341Z,96100.50
2022-12-31T09:37:44.441Z,96103.88
2022-12-31T09:40:50.717Z,96099.47
2022-12-31T09:43:35.239Z,96099.19
2022-12-31T09:46:52.255Z,96095.63
2022-12-31T09:49:33.943Z,96100.25
2022-12-31T09:52:21.210Z,96082.66
2022-12-31T09:55:00.201Z,96094.16
2022-12-31T09:57:37.113Z,96093.63
2022-12-31T10:00:05.891Z,96083.03
2022-12-31T10:02:59.780Z,96076.72
2022-12-31T10:05:32.688Z,96072.28
2022-12-31T10:08:24.998Z,96074.34
2022-12-31T10:11:14.494Z,96074.28
2022-12-31T10:13:59.490Z,96073.78
2022-12-31T10:16:57.541Z,96069.09
2022-12-31T10:19:35.549Z,96064.78
2022-12-31T10:22:44.773Z,96048.50
2022-12-31T10:25:38.815Z,96050.81
2022-12-31T10:28:14.838Z,96058.78
2022-12-31T10:30:57.097Z,96047.28
2022-12-31T10:33:43.223Z,96044.13
2022-12-31T10:36:25.510Z,96041.22
2022-12-31T10:39:24.030Z,96043.38
2022-12-31T10:42:21.574Z,96037.31
2022-12-31T10:45:19.604Z,96034.00
2022-12-31T10:48:07.577Z,96040.06
2022-12-31T10:51:02.602Z,96032.97
2022-12-31T10:54:00.841Z,96031.06
2022-12-31T10:56:33.129Z,96025.31
2022-12-31T10:59:37.436Z,96028.25
2022-12-31T11:02:35.136Z,96025.66
2022-12-31T11:05:24.065Z,96020.59
2022-12-31T11:07:59.595Z,96028.63
2022-12-31T11:10:35.146Z,96012.31
2022-12-31T11:13:35.985Z,96014.56
2022-12-31T11:16:40.398Z,96002.09
2022-12-31T11:19:21.387Z,96000.25
2022-12-31T11:22:05.232Z,95999.00
2022-12-31T11:24:55.256Z,95991.25
2022-12-31T11:27:58.862Z,95998.50
2022-12-31T11:30:37.209Z,95988.44
2022-12-31T11:33:15.600Z,95985.97
2022-12-31T11:36:10.854Z,95972.31
2022-12-31T11:38:51.825Z,95980.06
2022-12-31T11:41:35.033Z,95961.72
2022-12-31T11:44:39.089Z,95952.94
2022-12-31T11:47:28.081Z,95954.63
2022-12-31T11:50:20.971Z,95948.50
2022-12-31T11:53:12.208Z,95945.22
2022-12-31T11:56:06.482Z,95942.75
2022-12-31T11:58:33.193Z,95935.78
2022-12-31T12:01:10.799Z,95928.84
2022-12-31T12:03:38.981Z,95925.81
2022-12-31T12:06:05.539Z,95927.66
2022-12-31T12:08:33.044Z,95915.38
2022-12-31T12:11:07.308Z,95920.50
2022-12-31T12:13:34.481Z,95915.41
2022-12-31T12:16:07.167Z,95919.88
2022-12-31T12:18:39.396Z,95916.19
2022-12-31T12:21:10.651Z,95910.47
2022-12-31T12:23:37.760Z,95906.81
2022-12-31T12:26:04.769Z,95906.00
2022-12-31T12:28:44.640Z,95910.50
2022-12-31T12:31:21.003Z,95906.81
2022-12-31T12:33:50.058Z,95912.97
2022-12-31T12:36:19.229Z,95906.19
2022-12-31T12:38:45.846Z,95909.69
2022-12-31T12:41:21.141Z,95906.41
2022-12-31T12:43:47.696Z,95908.31
2022-12-31T12:46:22.925Z,95915.44
2022-12-31T12:48:56.162Z,95903.56
2022-12-31T12:51:41.262Z,95900.50
2022-12-31T12:54:31.329Z,95900.28
2022-12-31T12:57:14.480Z,95910.47
2022-12-31T13:00:02.914Z,95914.53
2022-12-31T13:03:01.457Z,95910.91
2022-12-31T13:05:38.341Z,95906.41
2022-12-31T13:08:35.704Z,95913.81
2022-12-31T13:11:20.138Z,95900.50
2022-12-31T13:13:46.528Z,95907.47
2022-12-31T13:16:20.584Z,95898.81
2022-12-31T13:18:59.190Z,95906.03
2022-12-31T13:21:50.109Z,95912.59
2022-12-31T13:24:38.172Z,95904.00
2022-12-31T13:27:18.928Z,95909.72
2022-12-31T13:29:47.981Z,95903.56
2022-12-31T13:32:24.380Z,95912.75
2022-12-31T13:34:57.738Z,95910.94
2022-12-31T13:37:40.403Z,95910.94
2022-12-31T13:40:30.414Z,95915.81
2022-12-31T13:43:16.555Z,95918.72
2022-12-31T13:45:48.184Z,95919.53
2022-12-31T13:48:32.626Z,95916.28
2022-12-31T13:51:13.589Z,95916.28
2022-12-31T13:53:54.336Z,95921.38
2022-12-31T13:56:29.210Z,95913.38
2022-12-31T13:59:25.750Z,95917.91
2022-12-31T14:01:56.941Z,95929.34
2022-12-31T14:04:32.410Z,95940.41
2022-12-31T14:07:10.133Z,95940.41
2022-12-31T14:09:36.961Z,95932.03
2022-12-31T14:12:23.423Z,95926.09
2022-12-31T14:15:05.017Z,95921.59
2022-12-31T14:17:38.688Z,95936.13
2022-12-31T14:20:37.180Z,95930.19
2022-12-31T14:23:22.424Z,95944.94
2022-12-31T14:26:00.958Z,95927.72
2022-12-31T14:28:46.652Z,95930.22
2022-12-31T14:31:39.021Z,95934.91
2022-12-31T14:34:24.225Z,95945.34
2022-12-31T14:37:10.223Z,95940.84
2022-12-31T14:40:00.196Z,95949.44
2022-12-31T14:42:45.710Z,95946.59
2022-12-31T14:45:18.219Z,95949.03
2022-12-31T14:47:58.038Z,95953.56
2022-12-31T14:50:30.442Z,95960.69
2022-12-31T14:52:59.638Z,95954.75
2022-12-31T14:55:32.201Z,95946.75
2022-12-31T14:58:28.083Z,95956.34
2022-12-31T15:00:58.877Z,95957.50
2022-12-31T15:03:31.343Z,95951.44
2022-12-31T15:06:22.639Z,95957.78
2022-12-31T15:09:37.380Z,95959.22
2022-12-31T15:12:30.525Z,95970.34
2022-12-31T15:14:59.747Z,95973.69
2022-12-31T15:17:29.105Z,95975.72
2022-12-31T15:20:01.547Z,95968.16
2022-12-31T15:22:43.445Z,95974.69
2022-12-31T15:25:40.053Z,95962.50
2022-12-31T15:28:30.012Z,95968.72
2022-12-31T15:31:04.501Z,95960.25
2022-12-31T15:33:37.428Z,95971.53
2022-12-31T15:36:34.269Z,95968.25
2022-12-31T15:39:20.301Z,95971.41
2022-12-31T15:42:36.683Z,95967.63
2022-12-31T15:44:38.087Z,95971.22
2022-12-31T15:47:14.936Z,95967.75
2022-12-31T15:49:46.353Z,95978.50
2022-12-31T15:52:41.881Z,95974.00
2022-12-31T15:55:22.967Z,95983.44
2022-12-31T15:57:50.504Z,95980.97
2022-12-31T16:00:23.184Z,95983.22
2022-12-31T16:02:54.535Z,95985.91
2022-12-31T16:05:27.078Z,95982.22
2022-12-31T16:07:59.352Z,95987.88
2022-12-31T16:10:31.922Z,95991.94
2022-12-31T16:13:00.279Z,95983.34
2022-12-31T16:15:31.239Z,95990.69
2022-12-31T16:18:10.233Z,95991.47
2022-12-31T16:20:43.368Z,95995.94
2022-12-31T16:23:21.195Z,96002.44
2022-12-31T16:25:50.853Z,96001.09
2022-12-31T16:28:24.884Z,96011.78
2022-12-31T16:31:07.250Z,96020.94
2022-12-31T16:33:34.143Z,96009.50
2022-12-31T16:36:02.057Z,96014.31
2022-12-31T16:38:34.674Z,96013.69
2022-12-31T16:41:01.091Z,96014.75
2022-12-31T16:43:36.826Z,96026.13
2022-12-31T16:46:21.486Z,96025.50
2022-12-31T16:49:01.849Z,96020.75
2022-12-31T16:51:35.785Z,96029.53
2022-12-31T16:54:03.235Z,96016.94
2022-12-31T16:56:38.114Z,96017.47
2022-12-31T16:59:16.695Z,96032.75
2022-12-31T17:01:44.312Z,96024.53
2022-12-31T17:04:18.419Z,96028.25
2022-12-31T17:06:45.207Z,96037.28
2022-12-31T17:09:18.368Z,96035.66
2022-12-31T17:11:58.653Z,96033.28
2022-12-31T17:14:27.646Z,96039.00
2022-12-31T17:17:02.780Z,96030.81
2022-12-31T17:19:42.336Z,96041.91
2022-12-31T17:22:31.636Z,96034.25
2022-12-31T17:25:07.391Z,96049.25
2022-12-31T17:27:35.713Z,96032.03
2022-12-31T17:30:21.813Z,96056.63
2022-12-31T17:32:48.648Z,96046.16
2022-12-31T17:35:27.451Z,96042.22
2022-12-31T17:37:54.059Z,96046.06
2022-12-31T17:40:50.843Z,96052.91
2022-12-31T17:43:22.047Z,96045.03
2022-12-31T17:45:51.932Z,96045.81
2022-12-31T17:48:22.704Z,96049.34
2022-12-31T17:50:51.872Z,96042.63
2022-12-31T17:53:18.870Z,96039.81
2022-12-31T17:55:50.725Z,96031.13
2022-12-31T17:58:29.791Z,96030.50
2022-12-31T18:00:57.728Z,96038.28
2022-12-31T18:03:24.584Z,96032.63
2022-12-31T18:05:51.601Z,96030.59
2022-12-31T18:08:18.103Z,96035.53
2022-12-31T18:10:45.079Z,96034.88
2022-12-31T18:13:23.086Z,96034.63
2022-12-31T18:15:49.908Z,96036.63
2022-12-31T18:18:25.320Z,96032.81
2022-12-31T18:21:01.979Z,96038.84
2022-12-31T18:23:35.548Z,96040.66
2022-12-31T18:26:02.005Z,96031.34
2022-12-31T18:28:29.604Z,96047.59
2022-12-31T18:30:56.234Z,96034.13
2022-12-31T18:33:22.874Z,96027.44
2022-12-31T18:36:08.374Z,96037.47
2022-12-31T18:38:35.574Z,96030.88
2022-12-31T18:41:02.038Z,96038.47
2022-12-31T18:43:28.473Z,96041.78
2022-12-31T18:45:55.062Z,96042.22
2022-12-31T18:48:21.588Z,96039.13
2022-12-31T18:50:49.345Z,96048.72
2022-12-31T18:53:22.174Z,96046.72
2022-12-31T18:55:57.263Z,96049.53
2022-12-31T18:58:24.258Z,96046.75
2022-12-31T19:00:51.908Z,96044.03
2022-12-31T19:03:24.630Z,96043.78
2022-12-31T19:05:51.536Z,96053.47
2022-12-31T19:08:19.303Z,96051.25
2022-12-31T19:10:47.612Z,96056.00
2022-12-31T19:13:16.891Z,96056.47
2022-12-31T19:15:51.644Z,96056.09
2022-12-31T19:18:18.664Z,96054.88
2022-12-31T19:20:46.152Z,96056.97
2022-12-31T19:23:18.684Z,96054.19
2022-12-31T19:25:46.882Z,96065.56
2022-12-31T19:28:25.258Z,96052.00
2022-12-31T19:30:52.403Z,96051.28
2022-12-31T19:33:19.673Z,96056.63
2022-12-31T19:35:46.360Z,96060.44
2022-12-31T19:38:22.283Z,96054.81
2022-12-31T19:40:50.407Z,96049.56
2022-12-31T19:43:19.557Z,96062.41
2022-12-31T19:45:46.612Z,96059.03
2022-12-31T19:48:18.699Z,96063.88
2022-12-31T19:50:47.940Z,96053.72
2022-12-31T19:53:19.195Z,96060.78
2022-12-31T19:55:46.185Z,96065.22
2022-12-31T19:58:21.843Z,96069.84
2022-12-31T20:00:55.585Z,96070.88
2022-12-31T20:03:25.992Z,96069.47
2022-12-31T20:06:01.635Z,96078.66
2022-12-31T20:08:28.111Z,96079.09
2022-12-31T20:10:54.592Z,96084.88
2022-12-31T20:13:21.065Z,96080.41
2022-12-31T20:15:47.518Z,96080.50
2022-12-31T20:18:14.103Z,96083.94
2022-12-31T20:20:49.207Z,96093.72
2022-12-31T20:23:18.518Z,96099.09
2022-12-31T20:25:44.971Z,96088.03
2022-12-31T20:28:11.435Z,96113.09
2022-12-31T20:30:38.939Z,96105.47
2022-12-31T20:33:05.424Z,96115.09
2022-12-31T20:35:31.899Z,96109.06
2022-12-31T20:37:58.411Z,96111.31
2022-12-31T20:40:24.854Z,96105.94
2022-12-31T20:42:51.315Z,96108.75
2022-12-31T20:45:17.865Z,96112.38
2022-12-31T20:47:44.403Z,96108.97
2022-12-31T20:50:12.255Z,96115.81
2022-12-31T20:52:39.226Z,96110.31
2022-12-31T20:55:06.262Z,96107.22
2022-12-31T20:57:33.890Z,96108.41
2022-12-31T21:00:01.002Z,96113.72
2022-12-31T21:02:40.873Z,96108.41
2022-12-31T21:05:09.315Z,96116.63
2022-12-31T21:07:35.925Z,96125.44
2022-12-31T21:10:02.419Z,96130.84
2022-12-31T21:12:28.940Z,96125.81
2022-12-31T21:14:55.483Z,96120.31
2022-12-31T21:17:21.947Z,96121.22
2022-12-31T21:19:48.408Z,96123.88
2022-12-31T21:22:14.917Z,96114.16
2022-12-31T21:24:41.373Z,96122.03
2022-12-31T21:27:07.923Z,96127.53
2022-12-31T21:29:35.573Z,96124.94
2022-12-31T21:32:03.597Z,96127.81
2022-12-31T21:34:30.040Z,96125.59
2022-12-31T21:36:56.531Z,96121.13
2022-12-31T21:39:23.035Z,96125.59
2022-12-31T21:41:49.520Z,96134.16
2022-12-31T21:44:16.031Z,96127.06
2022-12-31T21:47:00.916Z,96132.53
2022-12-31T21:49:28.939Z,96141.88
2022-12-31T21:51:55.485Z,96147.81
2022-12-31T21:54:21.978Z,96150.06
2022-12-31T21:56:48.457Z,96154.69
2022-12-31T21:59:14.931Z,96145.31
2022-12-31T22:01:42.230Z,96158.22
2022-12-31T22:04:28.202Z,96160.19
2022-12-31T22:06:55.177Z,96163.28
2022-12-31T22:09:21.651Z,96169.16
2022-12-31T22:11:48.153Z,96171.91
2022-12-31T22:14:14.650Z,96173.91
2022-12-31T22:16:41.125Z,96174.97
2022-12-31T22:19:07.631Z,96173.81
2022-12-31T22:21:34.085Z,96182.19
2022-12-31T22:24:00.528Z,96173.66
2022-12-31T22:26:28.877Z,96191.13
2022-12-31T22:28:55.428Z,96186.53
2022-12-31T22:31:23.362Z,96187.84
2022-12-31T22:33:50.260Z,96177.31
2022-12-31T22:36:22.324Z,96191.81
2022-12-31T22:38:50.886Z,96191.13
2022-12-31T22:41:21.845Z,96195.78
2022-12-31T22:43:50.994Z,96188.03
2022-12-31T22:46:23.615Z,96186.03
2022-12-31T22:48:51.502Z,96188.00
2022-12-31T22:51:19.877Z,96192.13
2022-12-31T22:53:46.375Z,96204.78
2022-12-31T22:56:15.786Z,96202.97
2022-12-31T22:58:42.899Z,96207.97
2022-12-31T23:01:23.041Z,96202.66
2022-12-31T23:03:52.343Z,96197.84
2022-12-31T23:06:21.031Z,96192.38
2022-12-31T23:08:47.782Z,96192.63
2022-12-31T23:11:14.280Z,96202.56
2022-12-31T23:13:49.508Z,96210.72
2022-12-31T23:16:16.915Z,96201.28
2022-12-31T23:18:43.439Z,96210.41
2022-12-31T23:21:10.114Z,96198.13
2022-12-31T23:23:36.568Z,96189.28
2022-12-31T23:26:03.120Z,96196.34
2022-12-31T23:28:29.615Z,96188.44
2022-12-31T23:30:56.144Z,96194.81
2022-12-31T23:33:25.634Z,96193.75
2022-12-31T23:36:03.094Z,96199.97
2022-12-31T23:38:29.574Z,96196.63
2022-12-31T23:40:56.087Z,96200.63
2022-12-31T23:43:22.831Z,96203.16
2022-12-31T23:45:50.837Z,96206.88
2022-12-31T23:48:17.301Z,96199.56
2022-12-31T23:50:49.165Z,96192.38
2022-12-31T23:53:19.035Z,96196.53
2022-12-31T23:55:45.498Z,96194.69
2022-12-31T23:58:11.957Z,96211.84
